Time;durP1;ratioP1;P1;durP2;ratioP2;P2;SDS_P1;SDS_P2;PMS_P1;PMS_P2;Temp;Humidity;BMP_temperature;BMP_pressure;BME280_temperature;BME280_humidity;BME280_pressure;Samples;Min_cycle;Max_cycle;Signal;HPM_P1;HPM_P2
2023/09/21 00:01:19;;;;;;;0.10;0.10;;;;;;;16.11;100.00;98063.56;5115465;28;20230;-57
2023/09/21 00:04:07;;;;;;;0.10;0.10;;;;;;;16.09;100.00;98062.91;5115545;28;20240;-57
2023/09/21 00:06:55;;;;;;;0.10;0.10;;;;;;;16.06;100.00;98054.38;5115686;28;20186;-57
2023/09/21 00:09:42;;;;;;;0.10;0.10;;;;;;;16.06;100.00;98057.88;5115576;28;20190;-58
2023/09/21 00:12:31;;;;;;;0.10;0.10;;;;;;;15.92;100.00;98048.66;5114015;28;20189;-57
2023/09/21 00:15:19;;;;;;;0.10;0.10;;;;;;;16.08;100.00;98058.56;5115459;28;20190;-58
2023/09/21 00:18:06;;;;;;;0.10;0.10;;;;;;;16.00;100.00;98059.34;5115445;28;20248;-57
2023/09/21 00:20:53;;;;;;;0.10;0.10;;;;;;;15.95;100.00;98044.81;5115044;28;20209;-57
2023/09/21 00:23:40;;;;;;;0.10;0.10;;;;;;;16.06;100.00;98046.38;5115060;28;20236;-57
2023/09/21 00:26:28;;;;;;;0.10;0.10;;;;;;;16.04;100.00;98038.50;5115250;28;20316;-58
2023/09/21 00:29:16;;;;;;;0.10;0.10;;;;;;;15.90;100.00;98034.59;5114267;28;20206;-58
2023/09/21 00:32:04;;;;;;;0.10;0.10;;;;;;;16.18;100.00;98039.72;5115094;28;20752;-58
2023/09/21 00:34:52;;;;;;;0.10;0.10;;;;;;;16.10;100.00;98040.53;5114984;28;20198;-57
2023/09/21 00:37:39;;;;;;;0.10;0.10;;;;;;;15.95;100.00;98042.16;5114926;28;20206;-57
2023/09/21 00:40:26;;;;;;;0.10;0.10;;;;;;;15.92;100.00;98037.09;5113846;28;20201;-57
2023/09/21 00:43:21;;;;;;;0.10;0.10;;;;;;;16.06;100.00;98033.00;5113697;28;20194;-57
2023/09/21 00:46:10;;;;;;;0.10;0.10;;;;;;;16.03;100.00;98026.16;5113850;28;20291;-57
2023/09/21 00:48:57;;;;;;;0.10;0.10;;;;;;;16.20;100.00;98019.03;5113863;28;20198;-57
2023/09/21 00:51:45;;;;;;;0.10;0.10;;;;;;;16.18;100.00;98013.00;5113710;28;20258;-58
2023/09/21 00:54:32;;;;;;;0.10;0.10;;;;;;;15.91;100.00;98016.72;5113742;28;20200;-58
2023/09/21 00:57:19;;;;;;;0.10;0.10;;;;;;;15.86;100.00;98016.41;5113349;28;20190;-57
2023/09/21 01:00:13;;;;;;;0.10;0.10;;;;;;;15.83;100.00;98014.06;5114643;28;20198;-58
2023/09/21 01:03:07;;;;;;;0.10;0.10;;;;;;;15.71;100.00;98014.31;5114511;28;20190;-58
2023/09/21 01:05:55;;;;;;;0.10;0.10;;;;;;;15.59;100.00;98004.88;5114575;28;20194;-58
2023/09/21 01:08:43;;;;;;;0.10;0.10;;;;;;;15.56;100.00;98009.69;5113011;28;20276;-57
2023/09/21 01:11:31;;;;;;;0.10;0.10;;;;;;;15.55;100.00;98000.84;5114349;28;20193;-57
2023/09/21 01:14:18;;;;;;;0.10;0.10;;;;;;;15.64;100.00;97999.94;5114253;28;20194;-57
2023/09/21 01:17:05;;;;;;;0.10;0.10;;;;;;;15.59;100.00;97996.84;5113105;28;20225;-57
2023/09/21 01:19:53;;;;;;;0.10;0.10;;;;;;;15.59;100.00;97999.53;5113205;28;20198;-57
2023/09/21 01:22:43;;;;;;;0.10;0.10;;;;;;;15.46;100.00;97991.97;5113688;28;20229;-57
2023/09/21 01:25:31;;;;;;;0.10;0.10;;;;;;;15.55;100.00;97994.69;5113265;28;20193;-58
2023/09/21 01:28:20;;;;;;;0.10;0.10;;;;;;;15.40;100.00;97997.09;5112774;28;20198;-57
2023/09/21 01:31:11;;;;;;;0.10;0.10;;;;;;;15.29;100.00;97992.00;5114011;28;20201;-58
2023/09/21 01:34:00;;;;;;;0.10;0.10;;;;;;;15.28;100.00;97991.19;5113912;28;20209;-58
2023/09/21 01:36:47;;;;;;;0.10;0.10;;;;;;;15.29;100.00;97992.84;5112805;28;20202;-58
2023/09/21 01:39:34;;;;;;;0.10;0.10;;;;;;;15.28;100.00;97990.34;5112734;28;20201;-57
2023/09/21 01:42:23;;;;;;;0.10;0.10;;;;;;;15.26;100.00;97993.16;5112211;28;20221;-58
2023/09/21 01:45:14;;;;;;;0.10;0.10;;;;;;;15.29;100.00;97984.84;5112669;28;20240;-57
2023/09/21 01:48:01;;;;;;;0.10;0.10;;;;;;;15.21;100.00;97989.28;5112655;28;20779;-57
2023/09/21 01:50:49;;;;;;;0.10;0.10;;;;;;;15.25;100.00;97978.16;5113654;28;20213;-57
2023/09/21 01:53:36;;;;;;;0.10;0.10;;;;;;;15.23;100.00;97985.44;5113606;28;20296;-57
2023/09/21 01:56:23;;;;;;;0.10;0.10;;;;;;;15.13;100.00;97977.56;5112609;28;20198;-57
2023/09/21 01:59:12;;;;;;;0.10;0.10;;;;;;;15.07;100.00;97967.53;5111236;28;20194;-57
2023/09/21 02:01:59;;;;;;;0.10;0.10;;;;;;;15.19;100.00;97973.44;5113464;28;20218;-57
2023/09/21 02:04:47;;;;;;;0.10;0.10;;;;;;;15.03;100.00;97975.97;5112496;28;20190;-57
2023/09/21 02:07:34;;;;;;;0.10;0.10;;;;;;;14.88;100.00;97965.06;5113496;28;20190;-57
2023/09/21 02:10:22;;;;;;;0.10;0.10;;;;;;;14.74;100.00;97957.59;5113477;28;20206;-58
2023/09/21 02:13:09;;;;;;;0.10;0.10;;;;;;;14.76;100.00;97959.09;5112091;28;20237;-57
2023/09/21 02:15:57;;;;;;;0.10;0.10;;;;;;;14.80;100.00;97960.47;5113424;28;20201;-57
2023/09/21 02:18:45;;;;;;;0.10;0.10;;;;;;;14.73;100.00;97961.25;5113375;28;20224;-57
2023/09/21 02:21:34;;;;;;;0.10;0.10;;;;;;;14.59;100.00;97951.97;5113231;28;20214;-57
2023/09/21 02:24:20;;;;;;;0.10;0.10;;;;;;;14.60;100.00;97959.81;5112997;28;20228;-57
2023/09/21 02:27:08;;;;;;;0.10;0.10;;;;;;;14.73;100.00;97961.25;5111960;28;20193;-57
2023/09/21 02:29:55;;;;;;;0.10;0.10;;;;;;;14.62;100.00;97964.97;5113206;28;20239;-57
2023/09/21 02:32:44;;;;;;;0.10;0.10;;;;;;;14.60;100.00;97957.16;5112223;28;20190;-57
2023/09/21 02:35:33;;;;;;;0.10;0.10;;;;;;;14.79;100.00;97958.81;5113206;28;20287;-57
2023/09/21 02:38:21;;;;;;;0.10;0.10;;;;;;;14.89;100.00;97959.56;5117273;28;20194;-57
2023/09/21 02:41:08;;;;;;;0.10;0.10;;;;;;;14.77;100.00;97957.28;5116301;28;20213;-57
2023/09/21 02:43:57;;;;;;;0.10;0.10;;;;;;;14.82;100.00;97947.81;5115908;28;20240;-57
2023/09/21 02:46:44;;;;;;;0.10;0.10;;;;;;;14.79;100.00;97941.97;5115922;28;20280;-57
2023/09/21 02:49:32;;;;;;;0.10;0.10;;;;;;;14.41;100.00;97943.94;5117138;28;20683;-57
2023/09/21 02:52:21;;;;;;;0.10;0.10;;;;;;;14.50;100.00;97945.72;5116128;28;20186;-57
2023/09/21 02:55:09;;;;;;;0.10;0.10;;;;;;;14.46;100.00;97944.34;5115938;28;20229;-57
2023/09/21 02:57:57;;;;;;;0.10;0.10;;;;;;;14.43;100.00;97957.13;5114708;28;20198;-57
2023/09/21 03:00:45;;;;;;;0.10;0.10;;;;;;;14.34;100.00;97950.88;5115921;28;20197;-57
2023/09/21 03:03:33;;;;;;;0.10;0.10;;;;;;;14.53;100.00;97952.56;5116347;28;20746;-57
2023/09/21 03:06:22;;;;;;;0.10;0.10;;;;;;;14.58;100.00;97940.47;5116888;28;20257;-57
2023/09/21 03:09:10;;;;;;;0.10;0.10;;;;;;;14.63;100.00;97939.16;5115754;28;20210;-57
2023/09/21 03:11:57;;;;;;;0.10;0.10;;;;;;;14.40;100.00;97936.13;5115253;28;20680;-57
2023/09/21 03:14:46;;;;;;;0.10;0.10;;;;;;;14.29;100.00;97942.50;5116669;28;20268;-57
2023/09/21 03:17:36;;;;;;;0.10;0.10;;;;;;;14.21;100.00;97942.44;5115588;28;20185;-57
2023/09/21 03:20:31;;;;;;;0.10;0.10;;;;;;;14.24;100.00;97940.28;5115491;28;20248;-57
2023/09/21 03:23:20;;;;;;;0.10;0.10;;;;;;;14.22;100.00;97939.59;5115001;28;20233;-57
2023/09/21 03:26:11;;;;;;;0.10;0.10;;;;;;;14.17;100.00;97933.03;5115524;28;20198;-57
2023/09/21 03:28:59;;;;;;;0.10;0.10;;;;;;;14.14;100.00;97931.53;5115091;28;20189;-57
2023/09/21 03:31:46;;;;;;;0.10;0.10;;;;;;;14.28;100.00;97930.16;5115355;28;20202;-57
2023/09/21 03:34:36;;;;;;;0.10;0.10;;;;;;;14.29;100.00;97924.69;5115873;28;20199;-57
2023/09/21 03:37:23;;;;;;;0.10;0.10;;;;;;;14.32;100.00;97916.41;5116245;28;20212;-57
2023/09/21 03:40:12;;;;;;;0.10;0.10;;;;;;;14.36;100.00;97914.25;5116240;28;20189;-57
2023/09/21 03:42:59;;;;;;;0.10;0.10;;;;;;;14.32;100.00;97913.72;5113582;28;20259;-57
2023/09/21 03:45:46;;;;;;;0.10;0.10;;;;;;;14.28;100.00;97906.19;5115128;28;20232;-58
2023/09/21 03:48:35;;;;;;;0.10;0.10;;;;;;;14.18;100.00;97902.75;5114143;28;20190;-57
2023/09/21 03:51:24;;;;;;;0.10;0.10;;;;;;;14.27;100.00;97894.69;5114765;28;20195;-57
2023/09/21 03:54:13;;;;;;;0.10;0.10;;;;;;;14.43;100.00;97890.50;5115881;28;20202;-57
2023/09/21 03:57:01;;;;;;;0.10;0.10;;;;;;;14.48;100.00;97888.28;5114600;28;20190;-57
2023/09/21 03:59:48;;;;;;;0.10;0.10;;;;;;;14.44;100.00;97892.19;5114591;28;20250;-57
2023/09/21 04:02:35;;;;;;;0.10;0.10;;;;;;;14.38;100.00;97891.00;5115527;28;20615;-57
2023/09/21 04:05:25;;;;;;;0.10;0.10;;;;;;;14.30;100.00;97880.25;5114693;28;20206;-57
2023/09/21 04:08:12;;;;;;;0.00;0.00;;;;;;;14.49;100.00;97885.44;5114530;28;20393;-57
2023/09/21 04:11:00;;;;;;;0.10;0.10;;;;;;;14.43;100.00;97880.69;5114629;28;20206;-57
2023/09/21 04:13:48;;;;;;;0.10;0.10;;;;;;;14.45;100.00;97878.75;5113130;28;20186;-57
2023/09/21 04:16:35;;;;;;;0.10;0.10;;;;;;;14.28;100.00;97876.88;5114305;28;20198;-57
2023/09/21 04:19:22;;;;;;;0.10;0.10;;;;;;;14.11;100.00;97872.44;5114361;28;20393;-57
2023/09/21 04:22:09;;;;;;;0.10;0.10;;;;;;;14.36;100.00;97866.31;5114331;28;20210;-57
2023/09/21 04:24:57;;;;;;;0.10;0.10;;;;;;;14.44;100.00;97861.06;5114089;28;20214;-58
2023/09/21 04:27:45;;;;;;;0.10;0.10;;;;;;;14.44;0.00;97861.06;5112972;28;20400;-57
2023/09/21 04:30:34;;;;;;;0.10;0.10;;;;;;;14.32;100.00;97855.13;5114195;28;20198;-58
2023/09/21 04:33:23;;;;;;;0.10;0.10;;;;;;;14.28;100.00;97845.78;5114048;28;20236;-57
2023/09/21 04:36:10;;;;;;;0.10;0.10;;;;;;;14.31;100.00;97849.97;5114109;28;20202;-58
2023/09/21 04:38:57;;;;;;;0.10;0.10;;;;;;;14.24;100.00;97854.22;5115014;28;20185;-57
2023/09/21 04:41:44;;;;;;;0.10;0.10;;;;;;;14.25;100.00;97853.22;5114381;28;20271;-58
2023/09/21 04:44:33;;;;;;;0.10;0.10;;;;;;;14.36;100.00;97857.47;5113674;28;20287;-57
2023/09/21 04:47:21;;;;;;;0.10;0.10;;;;;;;14.30;100.00;97849.13;5113845;28;20202;-57
2023/09/21 04:50:11;;;;;;;0.10;0.10;;;;;;;14.45;100.00;97852.09;5114836;28;20194;-57
2023/09/21 04:52:58;;;;;;;0.10;0.10;;;;;;;14.48;100.00;97840.31;5113694;28;20656;-57
2023/09/21 04:55:46;;;;;;;0.10;0.10;;;;;;;14.56;100.00;97845.69;5113630;28;20217;-57
2023/09/21 04:58:34;;;;;;;0.10;0.10;;;;;;;14.64;100.00;97832.41;5113459;28;20210;-57
2023/09/21 05:01:21;;;;;;;0.10;0.10;;;;;;;14.51;100.00;97843.50;5112569;28;20210;-58
2023/09/21 05:04:10;;;;;;;0.10;0.10;;;;;;;14.71;100.00;97845.97;5113354;28;20214;-58
2023/09/21 05:06:58;;;;;;;0.10;0.10;;;;;;;14.88;100.00;97845.09;5113563;28;20190;-57
2023/09/21 05:09:45;;;;;;;0.10;0.10;;;;;;;15.05;100.00;97841.47;5113417;28;20209;-57
2023/09/21 05:12:32;;;;;;;0.10;0.10;;;;;;;15.12;100.00;97844.38;5113083;28;20198;-57
2023/09/21 05:15:19;;;;;;;0.10;0.10;;;;;;;15.04;100.00;97845.16;5114306;28;20202;-57
2023/09/21 05:18:07;;;;;;;0.10;0.10;;;;;;;15.12;100.00;97841.69;5114047;28;20225;-58
2023/09/21 05:20:55;;;;;;;0.10;0.10;;;;;;;15.22;100.00;97845.06;5114275;28;20194;-58
2023/09/21 05:23:45;;;;;;;0.10;0.10;;;;;;;15.30;100.00;97849.63;5113927;28;20272;-57
2023/09/21 05:26:32;;;;;;;0.10;0.10;;;;;;;15.47;100.00;97840.69;5114146;28;20186;-58
2023/09/21 05:29:19;;;;;;;0.10;0.10;;;;;;;15.54;100.00;97830.19;5114154;28;20287;-57
2023/09/21 05:32:06;;;;;;;0.10;0.10;;;;;;;15.52;100.00;97819.69;5114148;28;20202;-58
2023/09/21 05:34:53;;;;;;;0.10;0.10;;;;;;;15.82;100.00;97831.63;5113879;28;20668;-57
2023/09/21 05:37:41;;;;;;;0.10;0.10;;;;;;;16.00;100.00;97832.31;5113846;28;20194;-58
2023/09/21 05:40:29;;;;;;;0.10;0.10;;;;;;;16.08;100.00;97828.00;5113602;28;20194;-58
2023/09/21 05:43:16;;;;;;;0.10;0.10;;;;;;;16.25;100.00;97822.50;5112373;28;20206;-58
2023/09/21 05:46:03;;;;;;;0.10;0.10;;;;;;;16.24;100.00;97822.69;5113779;28;20210;-57
2023/09/21 05:48:50;;;;;;;0.10;0.10;;;;;;;16.25;100.00;97821.66;5113712;28;20247;-58
2023/09/21 05:51:37;;;;;;;0.10;0.10;;;;;;;16.12;100.00;97821.34;5113697;28;20356;-57
2023/09/21 05:54:26;;;;;;;0.10;0.10;;;;;;;16.14;100.00;97822.84;5113641;28;20194;-58
2023/09/21 05:57:13;;;;;;;0.10;0.10;;;;;;;16.23;100.00;97818.34;5112326;28;20194;-58
2023/09/21 05:59:59;;;;;;;0.10;0.10;;;;;;;16.28;100.00;97818.66;5113519;28;20194;-57
2023/09/21 06:02:46;;;;;;;0.10;0.10;;;;;;;16.30;100.00;97812.13;5113353;28;20275;-58
2023/09/21 06:05:33;;;;;;;0.10;0.10;;;;;;;16.31;100.00;97823.69;5113577;28;20212;-58
2023/09/21 06:08:21;;;;;;;0.10;0.10;;;;;;;16.31;100.00;97823.69;5113490;28;20205;-58
2023/09/21 06:11:09;;;;;;;0.10;0.10;;;;;;;16.24;100.00;97828.03;5112819;28;20190;-57
2023/09/21 06:13:56;;;;;;;0.10;0.10;;;;;;;16.30;100.00;97817.47;5112166;28;20688;-58
2023/09/21 06:16:43;;;;;;;0.10;0.10;;;;;;;16.41;100.00;97829.69;5113238;28;20190;-57
2023/09/21 06:19:30;;;;;;;0.10;0.10;;;;;;;16.41;100.00;97824.34;5112266;28;20210;-58
2023/09/21 06:22:16;;;;;;;0.10;0.10;;;;;;;16.42;100.00;97831.38;5113001;28;20217;-58
2023/09/21 06:25:06;;;;;;;0.10;0.10;;;;;;;16.53;100.00;97832.84;5112601;28;20218;-58
2023/09/21 06:27:54;;;;;;;0.10;0.10;;;;;;;16.76;100.00;97825.00;5110185;28;20190;-57
2023/09/21 06:30:41;;;;;;;0.10;0.10;;;;;;;16.89;100.00;97830.66;5112326;28;20194;-57
2023/09/21 06:33:28;;;;;;;0.10;0.10;;;;;;;17.03;100.00;97815.75;5113362;28;20190;-57
2023/09/21 06:36:18;;;;;;;0.10;0.10;;;;;;;17.03;100.00;97815.75;5113648;28;20307;-58
2023/09/21 06:39:08;;;;;;;0.10;0.10;;;;;;;17.29;100.00;97827.03;5113255;28;20193;-57
2023/09/21 06:41:55;;;;;;;0.10;0.10;;;;;;;17.31;100.00;97816.97;5110344;28;20316;-57
2023/09/21 06:44:43;;;;;;;0.10;0.10;;;;;;;17.43;100.00;97817.44;5111989;28;20225;-57
2023/09/21 06:47:30;;;;;;;0.10;0.10;;;;;;;17.35;100.00;97814.78;5113087;28;20195;-57
2023/09/21 06:50:18;;;;;;;0.10;0.10;;;;;;;17.50;100.00;97817.56;5113079;28;20680;-57
2023/09/21 06:53:04;;;;;;;0.10;0.10;;;;;;;17.58;100.00;97815.69;5111777;28;20255;-57
2023/09/21 06:55:51;;;;;;;0.10;0.10;;;;;;;17.46;100.00;97811.72;5113129;28;20236;-57
2023/09/21 06:58:38;;;;;;;0.10;0.10;;;;;;;17.42;100.00;97813.09;5111884;28;20194;-58
2023/09/21 07:01:27;;;;;;;0.10;0.10;;;;;;;17.49;100.00;97805.19;5112838;28;20263;-58
2023/09/21 07:04:13;;;;;;;0.10;0.10;;;;;;;17.62;100.00;97805.44;5112939;28;20250;-57
2023/09/21 07:07:02;;;;;;;0.10;0.10;;;;;;;17.55;100.00;97799.13;5112923;28;20198;-57
2023/09/21 07:09:49;;;;;;;0.10;0.10;;;;;;;17.56;100.00;97796.25;5112867;28;20193;-57
2023/09/21 07:12:37;;;;;;;0.10;0.10;;;;;;;17.53;100.00;97787.75;5111568;28;20197;-57
2023/09/21 07:15:24;;;;;;;0.10;0.10;;;;;;;17.80;100.00;97795.34;5112821;28;20248;-57
2023/09/21 07:18:12;;;;;;;0.10;0.10;;;;;;;17.96;100.00;97791.72;5112738;28;20218;-57
2023/09/21 07:20:59;;;;;;;0.10;0.10;;;;;;;18.17;100.00;97791.06;5112780;28;20672;-57
2023/09/21 07:23:46;;;;;;;0.10;0.10;;;;;;;18.35;100.00;97794.25;5113765;28;20231;-57
2023/09/21 07:26:33;;;;;;;0.10;0.10;;;;;;;18.65;100.00;97780.94;5115395;28;20194;-57
2023/09/21 07:29:20;;;;;;;0.10;0.10;;;;;;;18.69;100.00;97783.06;5115125;28;20194;-58
2023/09/21 07:32:08;;;;;;;0.10;0.10;;;;;;;18.59;100.00;97785.13;5116378;28;20198;-57
2023/09/21 07:34:58;;;;;;;0.10;0.10;;;;;;;18.60;100.00;97792.16;5116242;28;20198;-57
2023/09/21 07:37:46;;;;;;;0.10;0.10;;;;;;;18.81;100.00;97803.03;5116274;28;20221;-57
2023/09/21 07:40:33;;;;;;;0.10;0.10;;;;;;;18.70;100.00;97805.34;5116331;28;20229;-57
2023/09/21 07:43:20;;;;;;;0.10;0.10;;;;;;;18.51;100.00;97817.38;5114793;28;20244;-57
2023/09/21 07:46:07;;;;;;;0.10;0.10;;;;;;;18.79;100.00;97818.50;5116110;28;20197;-57
2023/09/21 07:48:54;;;;;;;0.00;0.00;;;;;;;19.03;100.00;97816.59;5116075;28;20214;-57
2023/09/21 07:51:42;;;;;;;0.10;0.10;;;;;;;18.67;100.00;97805.72;5115964;28;20201;-58
2023/09/21 07:54:29;;;;;;;0.10;0.10;;;;;;;18.84;100.00;97813.41;5115900;28;20190;-57
2023/09/21 07:57:16;;;;;;;0.10;0.10;;;;;;;19.02;100.00;97810.38;5114496;28;20198;-58
2023/09/21 08:00:05;;;;;;;0.10;0.10;;;;;;;19.14;100.00;97816.13;5115926;28;20244;-57
2023/09/21 08:02:53;;;;;;;0.10;0.10;;;;;;;18.85;100.00;97809.72;5115736;28;20206;-57
2023/09/21 08:05:40;;;;;;;0.10;0.10;;;;;;;18.90;100.00;97802.94;5114206;28;20218;-57
2023/09/21 08:08:29;;;;;;;0.10;0.10;;;;;;;18.77;100.00;97804.44;5114378;28;20205;-57
2023/09/21 08:11:16;;;;;;;0.10;0.10;;;;;;;18.80;100.00;97787.13;5115554;28;20676;-57
2023/09/21 08:14:03;;;;;;;0.00;0.00;;;;;;;18.62;100.00;97803.53;5114815;28;20186;-57
2023/09/21 08:16:52;;;;;;;0.10;0.10;;;;;;;18.66;100.00;97796.84;5115489;28;20256;-57
2023/09/21 08:19:40;;;;;;;0.10;0.10;;;;;;;18.70;100.00;97800.81;5115472;28;20190;-58
2023/09/21 08:22:27;;;;;;;0.10;0.10;;;;;;;18.85;100.00;97803.53;5113556;28;20261;-58
2023/09/21 08:25:15;;;;;;;0.10;0.10;;;;;;;18.52;100.00;97786.88;5115052;28;20226;-57
2023/09/21 08:28:03;;;;;;;0.10;0.10;;;;;;;18.39;100.00;97792.88;5113117;28;20198;-57
2023/09/21 08:30:50;;;;;;;0.10;0.10;;;;;;;18.40;100.00;97796.38;5115014;28;20189;-57
2023/09/21 08:33:37;;;;;;;0.10;0.10;;;;;;;18.82;100.00;97799.38;5115105;28;20190;-57
2023/09/21 08:36:24;;;;;;;0.00;0.00;;;;;;;18.95;100.00;97796.03;5114034;28;20190;-57
2023/09/21 08:39:11;;;;;;;0.00;0.00;;;;;;;19.02;100.00;97793.44;5114924;28;20225;-57
2023/09/21 08:42:00;;;;;;;0.10;0.10;;;;;;;18.63;100.00;97801.72;5113571;28;20239;-57
2023/09/21 08:44:48;;;;;;;0.00;0.00;;;;;;;18.88;100.00;97803.16;5114791;28;20205;-57
2023/09/21 08:47:36;;;;;;;0.10;0.10;;;;;;;19.00;100.00;97803.50;5114158;28;20191;-58
2023/09/21 08:50:23;;;;;;;0.10;0.10;;;;;;;18.85;100.00;97799.00;5114810;28;20330;-58
2023/09/21 08:53:13;;;;;;;0.00;0.00;;;;;;;18.84;100.00;97783.06;5114716;28;20245;-57
2023/09/21 08:56:01;;;;;;;0.10;0.10;;;;;;;18.86;100.00;97787.22;5114581;28;20540;-58
2023/09/21 08:58:54;;;;;;;0.10;0.10;;;;;;;18.77;100.00;97782.97;5113288;28;20194;-57
2023/09/21 09:01:41;;;;;;;0.10;0.10;;;;;;;18.90;100.00;97786.84;5114519;28;20198;-57
2023/09/21 09:04:28;;;;;;;0.10;0.10;;;;;;;19.10;100.00;97793.34;5113936;28;20202;-58
2023/09/21 09:07:15;;;;;;;0.10;0.10;;;;;;;19.15;100.00;97789.09;5113387;28;20264;-58
2023/09/21 09:10:02;;;;;;;0.10;0.10;;;;;;;19.19;100.00;97783.34;5112777;28;20190;-57
2023/09/21 09:13:03;;;;;;;0.10;0.10;;;;;;;19.25;100.00;97794.16;5112292;28;20202;-57
2023/09/21 09:15:51;;;;;;;0.10;0.10;;;;;;;19.39;100.00;97782.56;5114317;28;20256;-57
2023/09/21 09:18:38;;;;;;;0.10;0.10;;;;;;;19.46;100.00;97785.34;5113767;28;20259;-57
2023/09/21 09:21:25;;;;;;;0.10;0.10;;;;;;;19.58;100.00;97777.66;5114197;28;20190;-57
2023/09/21 09:24:13;;;;;;;0.10;0.10;;;;;;;19.70;100.00;97770.78;5113621;28;20233;-57
2023/09/21 09:27:00;;;;;;;0.10;0.10;;;;;;;19.64;100.00;97767.00;5112125;28;20194;-57
2023/09/21 09:29:53;;;;;;;0.10;0.10;;;;;;;19.97;100.00;97767.31;5113183;28;20201;-57
2023/09/21 09:32:41;;;;;;;0.10;0.10;;;;;;;19.90;100.00;97766.44;5113788;28;20205;-57
2023/09/21 09:35:29;;;;;;;0.10;0.10;;;;;;;19.98;100.00;97757.44;5113548;28;20209;-58
2023/09/21 09:38:15;;;;;;;0.10;0.10;;;;;;;19.49;100.00;97752.72;5113503;28;20194;-57
2023/09/21 09:41:04;;;;;;;0.10;0.10;;;;;;;19.45;100.00;97741.53;5113841;28;20205;-57
2023/09/21 09:43:53;;;;;;;0.10;0.10;;;;;;;19.61;100.00;97742.38;5112059;28;20201;-57
2023/09/21 09:46:44;;;;;;;0.10;0.10;;;;;;;19.50;100.00;97740.97;5112559;28;20703;-57
2023/09/21 09:49:38;;;;;;;0.10;0.10;;;;;;;19.43;100.00;97738.22;5113719;28;20261;-57
2023/09/21 09:52:26;;;;;;;0.10;0.10;;;;;;;19.41;100.00;97734.91;5113440;28;20216;-57
2023/09/21 09:55:14;;;;;;;0.10;0.10;;;;;;;19.47;100.00;97733.28;5113630;28;20202;-57
2023/09/21 09:58:01;;;;;;;0.10;0.10;;;;;;;19.53;100.00;97729.84;5112294;28;20193;-57
2023/09/21 10:00:51;;;;;;;0.10;0.10;;;;;;;19.57;100.00;97730.31;5113286;28;20301;-57
2023/09/21 10:03:39;;;;;;;0.10;0.10;;;;;;;19.55;100.00;97729.66;5113688;28;20262;-58
2023/09/21 10:06:29;;;;;;;0.10;0.10;;;;;;;19.61;100.00;97732.47;5113009;28;20214;-57
2023/09/21 10:09:16;;;;;;;0.10;0.10;;;;;;;19.81;100.00;97731.84;5113461;28;20202;-57
2023/09/21 10:12:05;;;;;;;0.10;0.10;;;;;;;19.84;100.00;97716.16;5112064;28;20198;-57
2023/09/21 10:14:54;;;;;;;0.10;0.10;;;;;;;20.01;100.00;97716.72;5112059;28;20213;-58
2023/09/21 10:17:42;;;;;;;0.10;0.10;;;;;;;20.41;100.00;97712.47;5113129;28;20260;-57
2023/09/21 10:20:32;;;;;;;0.00;0.00;;;;;;;20.64;100.00;97700.66;5113436;28;20308;-57
2023/09/21 10:23:21;;;;;;;0.10;0.10;;;;;;;20.84;100.00;97705.13;5112813;28;20780;-57
2023/09/21 10:26:11;;;;;;;0.10;0.10;;;;;;;20.93;100.00;97694.19;5113077;28;20708;-57
2023/09/21 10:28:58;;;;;;;0.10;0.10;;;;;;;20.98;100.00;97694.44;5112174;28;20269;-57
2023/09/21 10:31:46;;;;;;;0.00;0.00;;;;;;;20.95;100.00;97698.34;5113252;28;20202;-57
2023/09/21 10:34:34;;;;;;;0.10;0.10;;;;;;;21.02;100.00;97679.53;5113113;28;20191;-58
2023/09/21 10:37:27;;;;;;;0.10;0.10;;;;;;;21.24;100.00;97672.16;5112892;28;20198;-57
2023/09/21 10:40:20;;;;;;;0.00;0.00;;;;;;;21.23;100.00;97663.25;5112628;28;20240;-57
2023/09/21 10:43:54;;;;;;;0.10;0.10;;;;;;;21.80;100.00;97653.00;5111872;28;20190;-58
2023/09/21 10:46:43;;;;;;;0.05;0.05;;;;;;;22.16;100.00;97653.44;5029632;28;20288;-58
2023/09/21 10:49:35;;;;;;;0.10;0.10;;;;;;;23.02;100.00;97657.84;5029653;28;20273;-58
2023/09/21 10:52:22;;;;;;;0.10;0.10;;;;;;;23.85;100.00;97645.13;5103396;28;20214;-58
2023/09/21 10:55:12;;;;;;;0.10;0.10;;;;;;;23.74;100.00;97647.69;5112631;28;20248;-58
2023/09/21 10:58:00;;;;;;;0.10;0.10;;;;;;;23.63;100.00;97647.34;5113533;28;20290;-58
2023/09/21 11:00:48;;;;;;;0.10;0.10;;;;;;;23.33;100.00;97647.06;5116709;28;20202;-57
2023/09/21 11:03:35;;;;;;;0.10;0.10;;;;;;;22.43;100.00;97646.16;5116740;28;20195;-58
2023/09/21 11:06:22;;;;;;;0.10;0.10;;;;;;;22.48;100.00;97637.41;5116404;28;20218;-58
2023/09/21 11:09:09;;;;;;;0.10;0.10;;;;;;;22.13;100.00;97647.66;5116838;28;20196;-57
2023/09/21 11:11:56;;;;;;;0.10;0.10;;;;;;;22.01;100.00;97647.44;5114611;28;20228;-58
2023/09/21 11:14:47;;;;;;;0.10;0.10;;;;;;;21.98;100.00;97645.13;5116337;28;20190;-58
2023/09/21 11:17:35;;;;;;;0.10;0.10;;;;;;;21.82;100.00;97643.69;5115080;28;20190;-58
2023/09/21 11:20:23;;;;;;;0.10;0.10;;;;;;;21.85;100.00;97637.06;5115348;28;20208;-58
2023/09/21 11:23:13;;;;;;;0.10;0.10;;;;;;;21.55;100.00;97636.63;5116069;28;20325;-57
2023/09/21 11:26:00;;;;;;;0.10;0.10;;;;;;;21.69;100.00;97633.72;5116453;28;20279;-57
2023/09/21 11:28:47;;;;;;;0.10;0.10;;;;;;;21.55;100.00;97633.94;5114799;28;20308;-57
2023/09/21 11:31:36;;;;;;;0.10;0.10;;;;;;;21.73;100.00;97631.47;5116266;28;20198;-57
2023/09/21 11:34:23;;;;;;;0.10;0.10;;;;;;;21.73;100.00;97627.94;5115937;28;20312;-58
2023/09/21 11:37:11;;;;;;;0.10;0.10;;;;;;;22.09;100.00;97628.34;5115871;28;20198;-57
2023/09/21 11:39:58;;;;;;;0.10;0.10;;;;;;;22.05;100.00;97629.78;5116251;28;20198;-57
2023/09/21 11:42:46;;;;;;;0.10;0.10;;;;;;;21.97;100.00;97624.59;5114741;28;20199;-57
2023/09/21 11:45:35;;;;;;;0.10;0.10;;;;;;;22.09;100.00;97625.66;5115375;28;20718;-58
2023/09/21 11:48:29;;;;;;;0.10;0.10;;;;;;;21.87;100.00;97624.19;5116088;28;20202;-58
2023/09/21 11:51:17;;;;;;;0.10;0.10;;;;;;;22.20;100.00;97613.44;5115494;28;20194;-58
2023/09/21 11:54:04;;;;;;;0.10;0.10;;;;;;;22.62;100.00;97605.84;5115918;28;20202;-58
2023/09/21 11:56:52;;;;;;;0.10;0.10;;;;;;;22.53;100.00;97597.16;5114066;28;20240;-58
2023/09/21 11:59:41;;;;;;;0.10;0.10;;;;;;;22.72;100.00;97590.03;5114670;28;20747;-58
2023/09/21 12:02:29;;;;;;;0.10;0.10;;;;;;;22.94;100.00;97583.28;5115520;28;20739;-57
2023/09/21 12:05:18;;;;;;;0.10;0.10;;;;;;;22.98;100.00;97573.72;5115671;28;20292;-58
2023/09/21 12:08:07;;;;;;;0.00;0.00;;;;;;;23.12;100.00;97563.66;5115134;28;20213;-57
2023/09/21 12:10:54;;;;;;;0.10;0.10;;;;;;;23.33;100.00;97559.78;5115142;28;20199;-57
2023/09/21 12:13:42;;;;;;;0.10;0.10;;;;;;;23.18;100.00;97551.19;5113935;28;20320;-58
2023/09/21 12:16:30;;;;;;;0.10;0.10;;;;;;;23.28;100.00;97546.94;5115384;28;20190;-57
2023/09/21 12:19:18;;;;;;;0.10;0.10;;;;;;;23.74;100.00;97550.34;5115505;28;20190;-58
2023/09/21 12:22:07;;;;;;;0.10;0.10;;;;;;;24.03;100.00;97538.00;5115094;28;20278;-58
2023/09/21 12:24:54;;;;;;;0.10;0.10;;;;;;;24.44;100.00;97530.09;5115383;28;20194;-58
2023/09/21 12:27:45;;;;;;;0.10;0.10;;;;;;;24.36;100.00;97526.88;5113360;28;20210;-57
2023/09/21 12:30:34;;;;;;;0.10;0.10;;;;;;;24.87;100.00;97528.28;5115040;28;20201;-58
2023/09/21 12:33:20;;;;;;;0.10;0.10;;;;;;;25.42;100.00;97520.00;5115161;28;20218;-57
2023/09/21 12:36:27;;;;;;;0.00;0.00;;;;;;;25.13;100.00;97516.28;5115204;28;20178;-57
2023/09/21 12:39:32;;;;;;;0.10;0.10;;;;;;;25.40;100.00;97512.94;5114548;28;20260;-57
2023/09/21 12:42:21;;;;;;;0.00;0.00;;;;;;;25.06;100.00;97513.66;5115057;28;20232;-58
2023/09/21 12:45:12;;;;;;;0.10;0.10;;;;;;;25.25;100.00;97509.00;5114421;28;20272;-57
2023/09/21 12:47:59;;;;;;;0.10;0.10;;;;;;;25.16;100.00;97511.22;5114558;28;20222;-58
2023/09/21 12:50:46;;;;;;;0.10;0.10;;;;;;;25.18;100.00;97505.56;5114856;28;20189;-58
2023/09/21 12:53:33;;;;;;;0.10;0.10;;;;;;;24.52;100.00;97505.44;5114461;28;20197;-57
2023/09/21 12:56:22;;;;;;;0.00;0.00;;;;;;;23.99;100.00;97510.59;5114683;28;20202;-57
2023/09/21 12:59:09;;;;;;;0.03;0.03;;;;;;;24.43;100.00;97498.66;5114609;28;20261;-57
2023/09/21 13:01:56;;;;;;;0.10;0.10;;;;;;;24.83;100.00;97501.69;5114385;28;20195;-58